createdAt,value
2018-09-11T00:00:10.765Z,17.50
2018-09-11T00:02:40.515Z,17.50
2018-09-11T00:05:10.131Z,17.50
2018-09-11T00:07:39.922Z,17.50
2018-09-11T00:10:09.712Z,17.50
2018-09-11T00:12:39.390Z,17.50
2018-09-11T00:15:09.105Z,17.50
2018-09-11T00:17:38.836Z,17.50
2018-09-11T00:20:08.529Z,17.50
2018-09-11T00:22:38.179Z,17.50
2018-09-11T00:25:07.966Z,17.50
2018-09-11T00:27:37.640Z,17.50
2018-09-11T00:30:07.525Z,17.50
2018-09-11T00:32:37.229Z,17.50
2018-09-11T00:35:06.956Z,17.50
2018-09-11T00:37:36.678Z,17.50
2018-09-11T00:40:06.480Z,17.40
2018-09-11T00:42:36.180Z,17.40
2018-09-11T00:45:05.946Z,17.40
2018-09-11T00:47:35.553Z,17.40
2018-09-11T00:50:05.341Z,17.40
2018-09-11T00:52:34.939Z,17.40
2018-09-11T00:55:04.623Z,17.40
2018-09-11T00:57:34.279Z,17.40
2018-09-11T01:00:03.988Z,17.30
2018-09-11T01:02:33.674Z,17.40
2018-09-11T01:05:03.329Z,17.40
2018-09-11T01:07:34.851Z,17.40
2018-09-11T01:10:07.719Z,17.40
2018-09-11T01:12:37.473Z,17.40
2018-09-11T01:15:08.901Z,17.40
2018-09-11T01:17:38.741Z,17.40
2018-09-11T01:20:09.175Z,17.40
2018-09-11T01:22:38.944Z,17.40
2018-09-11T01:25:08.657Z,17.40
2018-09-11T01:27:38.273Z,17.40
2018-09-11T01:30:08.099Z,17.40
2018-09-11T01:32:37.669Z,17.40
2018-09-11T01:35:07.297Z,17.50
2018-09-11T01:37:36.890Z,17.50
2018-09-11T01:40:06.675Z,17.50
2018-09-11T01:42:36.444Z,17.50
2018-09-11T01:45:06.207Z,17.50
2018-09-11T01:47:35.898Z,17.50
2018-09-11T01:50:05.611Z,17.50
2018-09-11T01:52:35.185Z,17.50
2018-09-11T01:55:04.905Z,17.60
2018-09-11T01:57:34.691Z,17.50
2018-09-11T02:00:04.459Z,17.50
2018-09-11T02:02:34.186Z,17.50
2018-09-11T02:05:04.371Z,17.50
2018-09-11T02:07:33.998Z,17.50
2018-09-11T02:10:03.787Z,17.60
2018-09-11T02:12:34.272Z,17.50
2018-09-11T02:15:05.043Z,17.50
2018-09-11T02:17:35.631Z,17.50
2018-09-11T02:20:05.465Z,17.50
2018-09-11T02:22:35.167Z,17.50
2018-09-11T02:25:05.023Z,17.50
2018-09-11T02:27:34.903Z,17.50
2018-09-11T02:30:04.481Z,17.50
2018-09-11T02:32:34.115Z,17.50
2018-09-11T02:36:06.874Z,17.60
2018-09-11T02:38:36.504Z,17.60
2018-09-11T02:41:06.370Z,17.60
2018-09-11T02:43:36.094Z,17.60
2018-09-11T02:46:05.855Z,17.70
2018-09-11T02:48:35.494Z,17.70
2018-09-11T02:51:05.166Z,17.70
2018-09-11T02:53:34.800Z,17.80
2018-09-11T02:56:04.437Z,17.80
2018-09-11T02:58:34.089Z,17.90
2018-09-11T03:01:03.768Z,17.90
2018-09-11T03:03:33.319Z,17.90
2018-09-11T03:06:03.367Z,18.00
2018-09-11T03:08:32.911Z,18.00
2018-09-11T03:11:02.503Z,18.10
2018-09-11T03:13:32.153Z,18.10
2018-09-11T03:16:01.963Z,18.10
2018-09-11T03:18:31.826Z,18.20
2018-09-11T03:21:01.474Z,18.20
2018-09-11T03:23:31.030Z,18.30
2018-09-11T03:26:00.614Z,18.30
2018-09-11T03:28:30.301Z,18.20
2018-09-11T03:30:59.976Z,18.30
2018-09-11T03:33:29.670Z,18.30
2018-09-11T03:35:59.302Z,18.30
2018-09-11T03:38:29.070Z,18.30
2018-09-11T03:40:58.662Z,18.40
2018-09-11T03:43:28.362Z,18.40
2018-09-11T03:45:58.137Z,18.40
2018-09-11T03:48:27.854Z,18.50
2018-09-11T03:50:57.723Z,18.50
2018-09-11T03:53:27.389Z,18.50
2018-09-11T03:55:57.123Z,18.50
2018-09-11T03:58:26.909Z,18.50
2018-09-11T04:00:56.635Z,18.50
2018-09-11T04:03:26.341Z,18.50
2018-09-11T04:05:56.094Z,18.60
2018-09-11T04:08:25.869Z,18.60
2018-09-11T04:10:55.446Z,18.50
2018-09-11T04:13:25.128Z,18.60
2018-09-11T04:15:54.759Z,18.60
2018-09-11T04:18:24.467Z,18.60
2018-09-11T04:20:54.072Z,18.60
2018-09-11T04:23:23.802Z,18.60
2018-09-11T04:25:53.507Z,18.60
2018-09-11T04:28:23.168Z,18.60
2018-09-11T04:30:53.058Z,18.50
2018-09-11T04:33:22.790Z,18.60
2018-09-11T04:35:52.462Z,18.60
2018-09-11T04:38:22.248Z,18.60
2018-09-11T04:40:51.838Z,18.50
2018-09-11T04:43:21.446Z,18.50
2018-09-11T04:45:51.025Z,18.50
2018-09-11T04:48:20.767Z,18.50
2018-09-11T04:50:50.482Z,18.50
2018-09-11T04:53:20.096Z,18.50
2018-09-11T04:55:49.816Z,18.50
2018-09-11T04:58:19.549Z,18.40
2018-09-11T05:00:49.283Z,18.30
2018-09-11T05:03:19.007Z,18.30
2018-09-11T05:05:48.733Z,18.20
2018-09-11T05:08:18.490Z,18.20
2018-09-11T05:10:48.456Z,18.20
2018-09-11T05:13:18.194Z,18.20
2018-09-11T05:15:47.973Z,18.10
2018-09-11T05:18:17.667Z,18.10
2018-09-11T05:20:47.318Z,18.10
2018-09-11T05:23:17.759Z,18.10
2018-09-11T05:25:47.561Z,18.00
2018-09-11T05:28:17.236Z,18.00
2018-09-11T05:30:47.090Z,18.00
2018-09-11T05:33:16.736Z,18.00
2018-09-11T05:35:46.560Z,18.00
2018-09-11T05:38:16.154Z,18.00
2018-09-11T05:40:45.844Z,17.90
2018-09-11T05:43:15.708Z,17.90
2018-09-11T05:45:45.438Z,18.00
2018-09-11T05:48:15.211Z,18.00
2018-09-11T05:50:44.974Z,18.00
2018-09-11T05:53:14.701Z,18.00
2018-09-11T05:55:44.462Z,17.90
2018-09-11T05:58:14.286Z,18.00
2018-09-11T06:00:44.121Z,18.00
2018-09-11T06:03:13.787Z,18.00
2018-09-11T06:05:43.400Z,18.00
2018-09-11T06:08:13.122Z,18.00
2018-09-11T06:10:42.873Z,18.00
2018-09-11T06:13:13.335Z,18.00
2018-09-11T06:15:43.030Z,18.10
2018-09-11T06:18:12.853Z,18.10
2018-09-11T06:20:42.657Z,18.10
2018-09-11T06:23:12.291Z,18.10
2018-09-11T06:25:42.045Z,18.10
2018-09-11T06:28:11.761Z,18.10
2018-09-11T06:30:41.471Z,18.10
2018-09-11T06:33:11.169Z,18.20
2018-09-11T06:35:42.185Z,18.20
2018-09-11T06:38:12.299Z,18.30
2018-09-11T06:40:42.013Z,18.30
2018-09-11T06:43:11.729Z,18.40
2018-09-11T06:45:41.453Z,18.40
2018-09-11T06:48:11.150Z,18.40
2018-09-11T06:50:41.680Z,18.50
2018-09-11T06:53:11.327Z,18.50
2018-09-11T06:55:41.032Z,18.60
2018-09-11T06:58:10.710Z,18.70
2018-09-11T07:00:41.698Z,18.80
2018-09-11T07:03:11.550Z,18.90
2018-09-11T07:05:41.211Z,19.00
2018-09-11T07:08:10.830Z,19.10
2018-09-11T07:10:40.514Z,19.20
2018-09-11T07:13:10.146Z,19.30
2018-09-11T07:15:39.846Z,19.50
2018-09-11T07:18:09.430Z,19.60
2018-09-11T07:20:39.107Z,19.70
2018-09-11T07:23:08.860Z,19.80
2018-09-11T07:25:38.462Z,20.00
2018-09-11T07:28:08.061Z,20.10
2018-09-11T07:30:37.673Z,20.20
2018-09-11T07:33:07.446Z,20.40
2018-09-11T07:35:37.030Z,20.60
2018-09-11T07:38:06.774Z,20.70
2018-09-11T07:40:36.437Z,20.80
2018-09-11T07:43:06.240Z,21.00
2018-09-11T07:45:35.976Z,21.10
2018-09-11T07:48:05.588Z,21.20
2018-09-11T07:50:35.273Z,21.30
2018-09-11T07:53:04.998Z,21.40
2018-09-11T07:55:34.665Z,21.60
2018-09-11T07:58:04.539Z,21.70
2018-09-11T08:00:34.200Z,21.70
2018-09-11T08:03:03.931Z,21.90
2018-09-11T08:05:33.626Z,22.00
2018-09-11T08:08:03.233Z,22.20
2018-09-11T08:10:33.118Z,22.30
2018-09-11T08:13:02.907Z,22.50
2018-09-11T08:15:32.633Z,22.50
2018-09-11T08:18:02.272Z,22.50
2018-09-11T08:20:31.989Z,22.60
2018-09-11T08:23:01.695Z,22.60
2018-09-11T08:25:31.359Z,22.70
2018-09-11T08:28:01.183Z,22.70
2018-09-11T08:30:32.738Z,22.80
2018-09-11T08:33:03.428Z,22.90
2018-09-11T08:35:33.147Z,23.00
2018-09-11T08:38:02.814Z,23.20
2018-09-11T08:40:32.511Z,23.40
2018-09-11T08:43:02.255Z,23.50
2018-09-11T08:45:31.935Z,23.70
2018-09-11T08:48:01.875Z,23.70
2018-09-11T08:50:31.571Z,23.70
2018-09-11T08:53:01.243Z,23.70
2018-09-11T08:55:30.907Z,23.80
2018-09-11T08:58:00.629Z,23.90
2018-09-11T09:00:30.379Z,24.00
2018-09-11T09:03:00.192Z,24.10
2018-09-11T09:05:29.766Z,24.20
2018-09-11T09:07:59.442Z,24.30
2018-09-11T09:10:29.326Z,24.30
2018-09-11T09:12:58.926Z,24.30
2018-09-11T09:15:28.565Z,24.40
2018-09-11T09:17:58.219Z,24.50
2018-09-11T09:20:27.960Z,24.60
2018-09-11T09:22:57.673Z,24.60
2018-09-11T09:25:27.474Z,24.70
2018-09-11T09:27:57.229Z,24.70
2018-09-11T09:30:27.062Z,24.60
2018-09-11T09:32:56.893Z,24.50
2018-09-11T09:35:26.863Z,24.60
2018-09-11T09:37:56.785Z,24.60
2018-09-11T09:40:27.179Z,24.70
2018-09-11T09:42:56.924Z,24.70
2018-09-11T09:45:26.605Z,24.90
2018-09-11T09:47:56.335Z,24.90
2018-09-11T09:50:26.015Z,25.00
2018-09-11T09:52:55.762Z,25.10
2018-09-11T09:55:25.383Z,25.40
2018-09-11T09:57:55.151Z,25.60
2018-09-11T10:00:30.270Z,25.70
2018-09-11T10:03:00.038Z,25.70
2018-09-11T10:05:29.846Z,25.80
2018-09-11T10:07:59.513Z,25.80
2018-09-11T10:10:29.332Z,25.90
2018-09-11T10:12:59.130Z,25.90
2018-09-11T10:15:28.805Z,25.90
2018-09-11T10:17:58.577Z,26.00
2018-09-11T10:20:28.432Z,26.10
2018-09-11T10:22:58.143Z,26.30
2018-09-11T10:25:27.819Z,26.40
2018-09-11T10:27:57.495Z,26.40
2018-09-11T10:30:27.214Z,26.40
2018-09-11T10:32:56.889Z,26.40
2018-09-11T10:35:26.672Z,26.60
2018-09-11T10:37:56.356Z,26.70
2018-09-11T10:40:26.228Z,26.70
2018-09-11T10:42:56.089Z,26.90
2018-09-11T10:45:25.882Z,26.90
2018-09-11T10:47:55.614Z,26.80
2018-09-11T10:50:25.240Z,27.00
2018-09-11T10:52:54.932Z,27.00
2018-09-11T10:55:24.602Z,27.10
2018-09-11T10:57:54.384Z,27.20
2018-09-11T11:00:24.265Z,27.30
2018-09-11T11:02:54.438Z,27.30
2018-09-11T11:05:24.068Z,27.40
2018-09-11T11:07:53.786Z,27.50
2018-09-11T11:10:23.572Z,27.60
2018-09-11T11:12:53.248Z,27.50
2018-09-11T11:15:22.966Z,27.60
2018-09-11T11:17:52.841Z,27.70
2018-09-11T11:20:22.867Z,27.90
2018-09-11T11:22:52.593Z,28.00
2018-09-11T11:25:22.517Z,28.10
2018-09-11T11:27:52.426Z,28.20
2018-09-11T11:30:22.097Z,28.30
2018-09-11T11:32:52.070Z,28.50
2018-09-11T11:35:21.876Z,28.50
2018-09-11T11:37:51.653Z,28.50
2018-09-11T11:40:21.403Z,28.30
2018-09-11T11:42:51.187Z,28.40
2018-09-11T11:45:21.607Z,28.40
2018-09-11T11:47:51.343Z,28.40
2018-09-11T11:50:21.051Z,28.50
2018-09-11T11:52:50.913Z,28.60
2018-09-11T11:55:20.597Z,28.60
2018-09-11T11:57:50.366Z,28.70
2018-09-11T12:00:20.095Z,28.70
2018-09-11T12:02:49.831Z,28.80
2018-09-11T12:05:19.565Z,28.80
2018-09-11T12:07:49.389Z,28.90
2018-09-11T12:10:19.134Z,28.90
2018-09-11T12:12:48.902Z,28.90
2018-09-11T12:15:18.702Z,29.10
2018-09-11T12:17:48.678Z,29.20
2018-09-11T12:20:18.424Z,29.30
2018-09-11T12:22:48.244Z,29.40
2018-09-11T12:25:18.312Z,29.50
2018-09-11T12:27:47.992Z,29.50
2018-09-11T12:30:17.984Z,29.50
2018-09-11T12:32:47.704Z,29.70
2018-09-11T12:35:17.646Z,29.90
2018-09-11T12:37:47.466Z,30.00
2018-09-11T12:40:17.168Z,30.10
2018-09-11T12:42:46.910Z,30.30
2018-09-11T12:45:16.690Z,30.30
2018-09-11T12:47:46.909Z,30.30
2018-09-11T12:50:16.451Z,30.40
2018-09-11T12:52:46.289Z,30.40
2018-09-11T12:55:16.137Z,30.40
2018-09-11T12:57:45.963Z,30.50
2018-09-11T13:00:15.876Z,30.60
2018-09-11T13:02:45.758Z,30.60
2018-09-11T13:05:15.434Z,30.60
2018-09-11T13:07:45.313Z,30.60
2018-09-11T13:10:15.076Z,30.50
2018-09-11T13:12:44.825Z,30.50
2018-09-11T13:15:14.686Z,30.50
2018-09-11T13:17:44.515Z,30.50
2018-09-11T13:20:14.621Z,30.60
2018-09-11T13:22:44.380Z,30.60
2018-09-11T13:25:14.242Z,30.70
2018-09-11T13:27:45.794Z,30.80
2018-09-11T13:30:15.477Z,30.80
2018-09-11T13:32:45.213Z,30.80
2018-09-11T13:35:15.080Z,30.80
2018-09-11T13:37:44.783Z,30.80
2018-09-11T13:40:14.563Z,30.80
2018-09-11T13:42:44.152Z,30.70
2018-09-11T13:45:13.959Z,30.80
2018-09-11T13:47:43.885Z,30.80
2018-09-11T13:50:13.575Z,30.70
2018-09-11T13:52:43.642Z,30.60
2018-09-11T13:55:13.218Z,30.60
2018-09-11T13:57:43.100Z,30.60
2018-09-11T14:00:12.921Z,30.60
2018-09-11T14:02:42.680Z,30.70
2018-09-11T14:05:12.382Z,30.80
2018-09-11T14:07:42.133Z,30.70
2018-09-11T14:10:11.864Z,30.80
2018-09-11T14:12:41.550Z,30.90
2018-09-11T14:15:11.350Z,30.90
2018-09-11T14:17:40.989Z,31.00
2018-09-11T14:20:10.652Z,31.00
2018-09-11T14:22:42.178Z,31.10
2018-09-11T14:25:11.833Z,31.00
2018-09-11T14:27:41.675Z,31.00
2018-09-11T14:30:11.381Z,31.00
2018-09-11T14:32:41.013Z,31.00
2018-09-11T14:35:10.738Z,31.00
2018-09-11T14:37:40.412Z,31.00
2018-09-11T14:40:10.069Z,31.10
2018-09-11T14:42:39.860Z,31.10
2018-09-11T14:45:09.683Z,31.10
2018-09-11T14:47:42.286Z,31.00
2018-09-11T14:50:13.430Z,31.00
2018-09-11T14:52:43.191Z,31.10
2018-09-11T14:55:12.911Z,31.10
2018-09-11T14:57:42.617Z,31.00
2018-09-11T15:00:12.329Z,31.00
2018-09-11T15:02:41.978Z,31.00
2018-09-11T15:05:11.736Z,30.90
2018-09-11T15:07:41.360Z,30.70
2018-09-11T15:10:11.124Z,30.60
2018-09-11T15:12:40.849Z,30.60
2018-09-11T15:15:10.660Z,30.60
2018-09-11T15:17:40.365Z,30.60
2018-09-11T15:20:10.200Z,30.60
2018-09-11T15:22:39.870Z,30.50
2018-09-11T15:25:09.601Z,30.60
2018-09-11T15:27:39.305Z,30.70
2018-09-11T15:30:08.995Z,30.60
2018-09-11T15:32:38.833Z,30.70
2018-09-11T15:35:08.818Z,30.70
2018-09-11T15:37:38.668Z,30.60
2018-09-11T15:40:08.387Z,30.50
2018-09-11T15:42:38.061Z,30.50
2018-09-11T15:45:07.812Z,30.50
2018-09-11T15:47:37.535Z,30.50
2018-09-11T15:50:07.204Z,30.30
2018-09-11T15:52:36.822Z,30.30
2018-09-11T15:55:06.685Z,30.20
2018-09-11T15:57:36.407Z,30.20
2018-09-11T16:00:06.174Z,30.20
2018-09-11T16:02:35.950Z,30.20
2018-09-11T16:05:05.596Z,30.20
2018-09-11T16:07:35.323Z,30.20
2018-09-11T16:10:05.376Z,30.20
2018-09-11T16:12:34.984Z,30.20
2018-09-11T16:15:04.812Z,30.30
2018-09-11T16:17:34.362Z,30.30
2018-09-11T16:20:04.080Z,30.30
2018-09-11T16:22:34.599Z,30.30
2018-09-11T16:25:04.828Z,30.20
2018-09-11T16:27:34.788Z,30.20
2018-09-11T16:30:04.508Z,30.10
2018-09-11T16:32:34.392Z,30.10
2018-09-11T16:35:04.134Z,30.00
2018-09-11T16:37:33.897Z,30.00
2018-09-11T16:40:03.620Z,29.90
2018-09-11T16:42:33.385Z,29.90
2018-09-11T16:45:03.086Z,29.90
2018-09-11T16:47:32.833Z,29.90
2018-09-11T16:50:02.590Z,29.80
2018-09-11T16:52:32.229Z,29.70
2018-09-11T16:55:01.964Z,29.70
2018-09-11T16:57:31.790Z,29.50
2018-09-11T17:00:01.461Z,29.30
2018-09-11T17:02:31.187Z,29.20
2018-09-11T17:05:00.986Z,29.10
2018-09-11T17:07:30.732Z,29.00
2018-09-11T17:10:00.270Z,28.90
2018-09-11T17:12:30.057Z,28.80
2018-09-11T17:14:59.696Z,28.70
2018-09-11T17:17:29.304Z,28.60
2018-09-11T17:19:59.026Z,28.50
2018-09-11T17:22:28.746Z,28.40
2018-09-11T17:24:58.542Z,28.30
2018-09-11T17:27:28.248Z,28.20
2018-09-11T17:29:59.215Z,28.10
2018-09-11T17:32:29.027Z,28.00
2018-09-11T17:34:58.656Z,27.90
2018-09-11T17:37:28.403Z,27.90
2018-09-11T17:39:58.326Z,27.80
2018-09-11T17:42:27.984Z,27.70
2018-09-11T17:44:57.846Z,27.70
2018-09-11T17:47:27.640Z,27.60
2018-09-11T17:49:57.372Z,27.50
2018-09-11T17:52:26.960Z,27.40
2018-09-11T17:54:56.848Z,27.40
2018-09-11T17:57:26.433Z,27.30
2018-09-11T17:59:56.270Z,27.20
2018-09-11T18:02:26.023Z,27.20
2018-09-11T18:04:55.791Z,27.10
2018-09-11T18:07:25.665Z,27.00
2018-09-11T18:09:55.297Z,26.90
2018-09-11T18:12:24.927Z,26.80
2018-09-11T18:14:54.891Z,26.80
2018-09-11T18:17:24.628Z,26.70
2018-09-11T18:19:54.487Z,26.60
2018-09-11T18:22:24.174Z,26.50
2018-09-11T18:24:54.115Z,26.40
2018-09-11T18:27:23.828Z,26.30
2018-09-11T18:29:53.707Z,26.30
2018-09-11T18:32:23.503Z,26.20
2018-09-11T18:34:53.513Z,26.10
2018-09-11T18:37:23.276Z,26.00
2018-09-11T18:39:53.133Z,25.90
2018-09-11T18:42:22.919Z,25.80
2018-09-11T18:44:52.718Z,25.70
2018-09-11T18:47:22.535Z,25.70
2018-09-11T18:49:52.295Z,25.60
2018-09-11T18:52:22.048Z,25.50
2018-09-11T18:54:51.798Z,25.50
2018-09-11T18:57:21.423Z,25.40
2018-09-11T18:59:51.159Z,25.30
2018-09-11T19:02:20.825Z,25.20
2018-09-11T19:04:50.523Z,25.10
2018-09-11T19:07:20.110Z,25.00
2018-09-11T19:09:49.762Z,24.90
2018-09-11T19:12:19.528Z,24.90
2018-09-11T19:14:49.262Z,24.80
2018-09-11T19:17:18.973Z,24.70
2018-09-11T19:19:48.732Z,24.60
2018-09-11T19:22:18.288Z,24.60
2018-09-11T19:24:48.039Z,24.50
2018-09-11T19:27:17.844Z,24.40
2018-09-11T19:29:47.530Z,24.40
2018-09-11T19:32:17.313Z,24.30
2018-09-11T19:34:46.998Z,24.20
2018-09-11T19:37:16.696Z,24.20
2018-09-11T19:39:46.419Z,24.10
2018-09-11T19:42:16.133Z,24.10
2018-09-11T19:44:45.836Z,24.10
2018-09-11T19:47:15.725Z,24.00
2018-09-11T19:49:45.437Z,23.90
2018-09-11T19:52:15.101Z,23.90
2018-09-11T19:54:44.890Z,23.80
2018-09-11T19:57:14.507Z,23.70
2018-09-11T19:59:44.214Z,23.70
2018-09-11T20:02:13.879Z,23.60
2018-09-11T20:04:43.622Z,23.60
2018-09-11T20:07:14.315Z,23.50
2018-09-11T20:09:44.048Z,23.50
2018-09-11T20:12:13.668Z,23.40
2018-09-11T20:14:43.822Z,23.40
2018-09-11T20:17:14.438Z,23.40
2018-09-11T20:19:44.138Z,23.30
2018-09-11T20:22:13.870Z,23.30
2018-09-11T20:24:43.629Z,23.20
2018-09-11T20:27:13.496Z,23.20
2018-09-11T20:29:43.278Z,23.20
2018-09-11T20:32:13.045Z,23.10
2018-09-11T20:34:43.653Z,23.10
2018-09-11T20:37:13.445Z,23.10
2018-09-11T20:39:43.120Z,23.10
2018-09-11T20:42:12.852Z,23.00
2018-09-11T20:44:42.584Z,23.00
2018-09-11T20:47:12.279Z,23.00
2018-09-11T20:49:41.993Z,22.90
2018-09-11T20:52:11.729Z,22.90
2018-09-11T20:54:41.441Z,22.90
2018-09-11T20:57:11.135Z,22.90
2018-09-11T20:59:41.154Z,22.90
2018-09-11T21:02:11.100Z,22.80
2018-09-11T21:04:40.826Z,22.80
2018-09-11T21:07:10.461Z,22.80
2018-09-11T21:09:40.111Z,22.70
2018-09-11T21:12:09.851Z,22.70
2018-09-11T21:14:39.546Z,22.60
2018-09-11T21:17:09.569Z,22.50
2018-09-11T21:19:39.325Z,22.50
2018-09-11T21:22:09.047Z,22.40
2018-09-11T21:24:39.531Z,22.40
2018-09-11T21:27:09.366Z,22.30
2018-09-11T21:29:39.217Z,22.30
2018-09-11T21:32:08.901Z,22.20
2018-09-11T21:34:38.673Z,22.20
2018-09-11T21:37:08.409Z,22.10
2018-09-11T21:39:38.131Z,22.10
2018-09-11T21:42:07.987Z,22.10
2018-09-11T21:44:37.752Z,22.00
2018-09-11T21:47:07.495Z,22.00
2018-09-11T21:49:37.154Z,22.00
2018-09-11T21:52:06.954Z,22.00
2018-09-11T21:54:36.582Z,21.90
2018-09-11T21:57:06.360Z,21.90
2018-09-11T21:59:36.014Z,21.80
2018-09-11T22:02:05.758Z,21.80
2018-09-11T22:04:35.361Z,21.70
2018-09-11T22:07:05.184Z,21.70
2018-09-11T22:09:34.852Z,21.60
2018-09-11T22:12:04.523Z,21.60
2018-09-11T22:14:34.241Z,21.50
2018-09-11T22:17:03.951Z,21.50
2018-09-11T22:19:33.635Z,21.40
2018-09-11T22:22:03.233Z,21.40
2018-09-11T22:24:32.867Z,21.30
2018-09-11T22:27:02.473Z,21.30
2018-09-11T22:29:32.171Z,21.30
2018-09-11T22:32:01.791Z,21.20
2018-09-11T22:34:31.497Z,21.20
2018-09-11T22:37:01.144Z,21.10
2018-09-11T22:39:30.831Z,21.00
2018-09-11T22:42:00.422Z,21.00
2018-09-11T22:44:30.052Z,21.00
2018-09-11T22:47:00.199Z,20.90
2018-09-11T22:49:29.890Z,20.90
2018-09-11T22:51:59.659Z,20.80
2018-09-11T22:54:29.310Z,20.80
2018-09-11T22:56:58.931Z,20.70
2018-09-11T22:59:28.626Z,20.70
2018-09-11T23:01:58.206Z,20.70
2018-09-11T23:04:27.822Z,20.70
2018-09-11T23:06:57.446Z,20.70
2018-09-11T23:09:27.136Z,20.60
2018-09-11T23:11:56.772Z,20.60
2018-09-11T23:14:26.489Z,20.60
2018-09-11T23:16:56.133Z,20.60
2018-09-11T23:19:25.791Z,20.60
2018-09-11T23:21:55.526Z,20.60
2018-09-11T23:24:25.171Z,20.60
2018-09-11T23:26:54.784Z,20.50
2018-09-11T23:29:24.439Z,20.50
2018-09-11T23:31:54.005Z,20.50
2018-09-11T23:34:23.609Z,20.50
2018-09-11T23:36:53.494Z,20.50
2018-09-11T23:39:23.074Z,20.50
2018-09-11T23:41:52.725Z,20.60
2018-09-11T23:44:22.582Z,20.60
2018-09-11T23:46:52.227Z,20.70
2018-09-11T23:49:21.846Z,20.70
2018-09-11T23:51:51.604Z,20.70
2018-09-11T23:54:21.277Z,20.70
2018-09-11T23:56:50.928Z,20.80
2018-09-11T23:59:20.429Z,20.80
